Time;durP1;ratioP1;P1;durP2;ratioP2;P2;SDS_P1;SDS_P2;PMS_P1;PMS_P2;Temp;Humidity;BMP_temperature;BMP_pressure;BME280_temperature;BME280_humidity;BME280_pressure;Samples;Min_cycle;Max_cycle;Signal;HPM_P1;HPM_P2
2023/03/24 00:00:29;;;;;;;5.75;3.72;;;10.80;99.90;;;;;;5103001;28;20048;-67
2023/03/24 00:02:55;;;;;;;8.93;4.50;;;10.80;99.90;;;;;;5098641;28;20040;-67
2023/03/24 00:05:22;;;;;;;8.65;4.68;;;10.80;99.90;;;;;;5094965;28;20038;-67
2023/03/24 00:07:48;;;;;;;10.55;4.30;;;10.80;99.90;;;;;;5093860;28;20032;-67
2023/03/24 00:10:19;;;;;;;10.43;4.70;;;10.70;99.90;;;;;;5095070;28;20060;-67
2023/03/24 00:12:48;;;;;;;7.90;4.13;;;10.70;99.90;;;;;;5095800;28;20047;-66
2023/03/24 00:15:22;;;;;;;8.15;4.47;;;10.70;99.90;;;;;;5096348;28;20043;-67
2023/03/24 00:17:49;;;;;;;11.82;5.32;;;10.80;99.90;;;;;;5092598;28;20052;-67
2023/03/24 00:20:19;;;;;;;8.07;4.13;;;10.70;99.90;;;;;;5097015;28;20039;-67
2023/03/24 00:22:49;;;;;;;8.57;4.50;;;10.70;99.90;;;;;;5102741;28;20036;-66
2023/03/24 00:25:22;;;;;;;7.00;4.65;;;10.70;99.90;;;;;;5078471;28;20036;-67
2023/03/24 00:27:50;;;;;;;9.15;4.63;;;10.70;99.90;;;;;;5104054;28;20104;-67
2023/03/24 00:30:19;;;;;;;8.40;4.65;;;10.70;99.90;;;;;;5105253;28;20480;-67
2023/03/24 00:32:45;;;;;;;10.75;4.57;;;10.70;99.90;;;;;;5103689;28;20512;-67
2023/03/24 00:35:13;;;;;;;15.27;5.05;;;10.60;99.90;;;;;;5097274;28;20058;-66
2023/03/24 00:37:43;;;;;;;9.25;4.45;;;10.60;99.90;;;;;;5103089;28;20045;-67
2023/03/24 00:40:15;;;;;;;9.25;4.43;;;10.60;99.90;;;;;;5104981;28;20039;-67
2023/03/24 00:42:47;;;;;;;7.10;4.55;;;10.60;99.90;;;;;;5093843;28;20036;-67
2023/03/24 00:45:17;;;;;;;13.35;4.82;;;10.60;99.90;;;;;;5082646;28;20044;-66
2023/03/24 00:47:43;;;;;;;10.73;4.65;;;10.70;99.90;;;;;;5098420;28;20036;-67
2023/03/24 00:50:16;;;;;;;11.88;5.00;;;10.70;99.90;;;;;;5094920;28;20039;-67
2023/03/24 00:52:46;;;;;;;11.35;4.80;;;10.60;99.90;;;;;;5094164;28;20036;-66
2023/03/24 00:55:14;;;;;;;11.93;4.90;;;10.60;99.90;;;;;;5097533;28;20048;-67
2023/03/24 00:57:48;;;;;;;8.93;4.93;;;10.60;99.90;;;;;;5104354;28;20557;-67
2023/03/24 01:00:18;;;;;;;9.60;4.88;;;10.70;99.90;;;;;;5082658;28;20119;-67
2023/03/24 01:02:47;;;;;;;8.70;5.30;;;10.60;99.90;;;;;;5094591;28;20100;-67
2023/03/24 01:05:16;;;;;;;9.63;4.38;;;10.70;99.90;;;;;;5096231;28;20035;-67
2023/03/24 01:07:42;;;;;;;8.30;4.60;;;10.70;99.90;;;;;;5095649;28;20569;-67
2023/03/24 01:10:12;;;;;;;5.95;4.05;;;10.70;99.90;;;;;;5096406;28;20529;-67
2023/03/24 01:12:38;;;;;;;10.63;4.50;;;10.70;99.90;;;;;;5095691;28;20047;-67
2023/03/24 01:15:08;;;;;;;11.50;4.30;;;10.70;99.90;;;;;;5102200;28;20047;-67
2023/03/24 01:17:34;;;;;;;6.95;4.15;;;10.70;99.90;;;;;;5095743;28;20088;-67
2023/03/24 01:20:07;;;;;;;8.18;4.68;;;10.70;99.90;;;;;;5098002;28;20393;-67
2023/03/24 01:22:40;;;;;;;9.70;4.10;;;10.70;99.90;;;;;;5101164;28;20427;-67
2023/03/24 01:25:18;;;;;;;9.55;4.13;;;10.80;99.90;;;;;;5103536;28;20580;-67
2023/03/24 01:27:46;;;;;;;5.60;3.85;;;10.70;99.90;;;;;;5077529;28;20143;-67
2023/03/24 01:30:14;;;;;;;7.85;4.40;;;10.80;99.90;;;;;;5101843;28;20047;-67
2023/03/24 01:32:45;;;;;;;7.28;4.47;;;10.80;99.90;;;;;;5097992;28;20032;-68
2023/03/24 01:35:15;;;;;;;8.60;4.60;;;10.80;99.90;;;;;;5095973;28;20043;-67
2023/03/24 01:37:51;;;;;;;6.57;4.10;;;10.80;99.90;;;;;;5082504;28;20539;-67
2023/03/24 01:40:20;;;;;;;7.82;4.38;;;10.80;99.90;;;;;;5100743;28;20051;-67
2023/03/24 01:42:47;;;;;;;10.50;4.55;;;10.80;99.90;;;;;;5095745;28;20400;-67
2023/03/24 01:45:39;;;;;;;8.40;4.43;;;10.80;99.90;;;;;;5092748;28;20028;-67
2023/03/24 01:48:15;;;;;;;10.27;5.15;;;10.90;99.90;;;;;;5023501;28;20136;-67
2023/03/24 01:50:45;;;;;;;7.70;4.70;;;10.80;99.90;;;;;;5094717;28;20070;-67
2023/03/24 01:53:11;;;;;;;7.43;4.68;;;10.80;99.90;;;;;;5101806;28;20066;-67
2023/03/24 01:55:44;;;;;;;10.55;5.32;;;10.80;99.90;;;;;;5094107;28;20036;-67
2023/03/24 01:58:13;;;;;;;10.80;5.28;;;10.80;99.90;;;;;;5091639;28;20044;-67
2023/03/24 02:00:40;;;;;;;10.55;5.20;;;10.80;99.90;;;;;;5102522;28;20043;-67
2023/03/24 02:03:28;;;;;;;8.13;5.20;;;10.80;99.90;;;;;;5089161;28;20100;-67
2023/03/24 02:06:01;;;;;;;9.18;5.03;;;10.90;99.90;;;;;;5103742;28;20058;-67
2023/03/24 02:08:50;;;;;;;7.85;5.40;;;10.80;99.90;;;;;;5094915;28;20297;-67
2023/03/24 02:11:16;;;;;;;7.72;4.97;;;10.90;99.90;;;;;;5090995;28;20566;-67
2023/03/24 02:13:45;;;;;;;7.32;4.40;;;10.90;99.90;;;;;;5086723;28;20878;-67
2023/03/24 02:16:39;;;;;;;8.93;4.88;;;10.90;99.90;;;;;;5079086;28;20063;-67
2023/03/24 02:19:36;;;;;;;7.07;4.28;;;10.90;99.90;;;;;;5101729;28;20047;-67
2023/03/24 02:22:08;;;;;;;6.68;4.65;;;11.00;99.90;;;;;;5093739;28;20043;-67
2023/03/24 02:24:43;;;;;;;7.13;4.53;;;11.00;99.90;;;;;;5093348;28;20075;-67
2023/03/24 02:27:29;;;;;;;8.65;4.60;;;11.00;99.90;;;;;;5093162;28;20048;-67
2023/03/24 02:30:16;;;;;;;7.07;4.45;;;11.00;99.90;;;;;;5094998;28;20130;-67
2023/03/24 02:33:22;;;;;;;7.57;4.80;;;11.10;99.90;;;;;;5092099;28;20081;-67
2023/03/24 02:36:14;;;;;;;6.80;4.50;;;11.10;99.90;;;;;;5101127;28;20501;-67
2023/03/24 02:39:17;;;;;;;9.45;5.20;;;11.10;99.90;;;;;;5102071;28;20074;-67
2023/03/24 02:42:02;;;;;;;10.13;4.85;;;11.10;99.90;;;;;;5098718;28;20058;-67
2023/03/24 02:44:56;;;;;;;7.13;4.55;;;11.10;99.90;;;;;;5091743;28;20055;-67
2023/03/24 02:47:37;;;;;;;8.02;4.78;;;11.10;99.90;;;;;;5090762;28;20035;-68
2023/03/24 02:50:27;;;;;;;7.35;5.30;;;11.10;99.90;;;;;;5075238;28;20066;-67
2023/03/24 02:53:07;;;;;;;5.95;4.90;;;11.10;99.90;;;;;;5076865;28;20484;-68
2023/03/24 02:55:50;;;;;;;6.05;4.43;;;11.10;99.90;;;;;;5095686;28;20090;-67
2023/03/24 02:58:46;;;;;;;6.05;4.53;;;11.20;99.90;;;;;;5092824;28;20043;-67
2023/03/24 03:01:30;;;;;;;6.47;4.80;;;11.20;99.90;;;;;;5093001;28;20023;-68
2023/03/24 03:04:07;;;;;;;9.68;4.18;;;11.20;99.90;;;;;;5100810;28;20035;-67
2023/03/24 03:06:39;;;;;;;7.45;4.60;;;11.20;99.90;;;;;;5092281;28;20047;-67
2023/03/24 03:09:12;;;;;;;5.72;4.38;;;11.20;99.90;;;;;;5079267;28;20040;-68
2023/03/24 03:11:41;;;;;;;7.68;4.90;;;11.20;99.90;;;;;;5101879;28;20035;-68
2023/03/24 03:14:16;;;;;;;8.48;5.32;;;11.20;99.90;;;;;;5091681;28;20480;-67
2023/03/24 03:16:52;;;;;;;6.35;4.97;;;11.20;99.90;;;;;;5094246;28;20548;-67
2023/03/24 03:19:32;;;;;;;6.43;4.65;;;11.20;99.90;;;;;;5095762;28;20203;-68
2023/03/24 03:22:09;;;;;;;5.82;4.45;;;11.20;99.90;;;;;;5085036;28;20074;-68
2023/03/24 03:24:39;;;;;;;6.80;4.57;;;11.20;99.90;;;;;;5102218;28;20067;-68
2023/03/24 03:27:15;;;;;;;7.00;4.85;;;11.20;99.90;;;;;;5089470;28;20055;-67
2023/03/24 03:29:49;;;;;;;6.55;4.07;;;11.20;99.90;;;;;;5098494;28;20028;-68
2023/03/24 03:32:23;;;;;;;8.40;4.97;;;11.20;99.90;;;;;;5074448;28;20115;-68
2023/03/24 03:35:04;;;;;;;7.05;4.70;;;11.20;99.90;;;;;;5095863;28;20043;-68
2023/03/24 03:37:50;;;;;;;6.75;4.72;;;11.20;99.90;;;;;;5099786;28;20048;-68
2023/03/24 03:40:40;;;;;;;6.85;4.18;;;11.20;99.90;;;;;;5099384;28;20132;-67
2023/03/24 03:43:06;;;;;;;7.70;4.55;;;11.30;99.90;;;;;;5095044;28;20067;-67
2023/03/24 03:45:33;;;;;;;8.55;4.25;;;11.30;99.90;;;;;;5076778;28;20123;-68
2023/03/24 03:48:00;;;;;;;5.72;4.25;;;11.30;99.90;;;;;;5099293;28;20043;-68
2023/03/24 03:50:25;;;;;;;5.53;4.13;;;11.30;99.90;;;;;;5099633;28;20050;-67
2023/03/24 03:52:52;;;;;;;6.85;4.03;;;11.30;99.90;;;;;;5080700;28;20400;-68
2023/03/24 03:55:18;;;;;;;5.97;4.07;;;11.30;99.90;;;;;;5080738;28;20553;-68
2023/03/24 03:57:44;;;;;;;6.57;4.22;;;11.30;99.90;;;;;;5081353;28;20036;-68
2023/03/24 04:00:18;;;;;;;6.90;4.70;;;11.40;99.90;;;;;;5099817;28;20105;-68
2023/03/24 04:02:51;;;;;;;7.68;4.65;;;11.30;99.90;;;;;;5104055;28;20066;-68
2023/03/24 04:05:35;;;;;;;5.97;4.10;;;11.30;99.90;;;;;;5101116;28;20036;-68
2023/03/24 04:08:07;;;;;;;5.05;4.03;;;11.30;99.90;;;;;;5105430;28;20036;-68
2023/03/24 04:11:05;;;;;;;3.95;3.55;;;11.30;99.90;;;;;;5096601;28;20417;-68
2023/03/24 04:13:53;;;;;;;6.53;3.97;;;11.40;99.90;;;;;;5094204;28;20062;-68
2023/03/24 04:16:46;;;;;;;4.93;2.40;;;11.30;99.90;;;;;;5099311;28;20236;-68
2023/03/24 04:19:47;;;;;;;3.30;2.33;;;11.20;99.90;;;;;;5097331;28;20036;-67
2023/03/24 04:22:37;;;;;;;4.88;2.05;;;11.00;99.90;;;;;;5100357;28;20040;-68
2023/03/24 04:25:27;;;;;;;4.95;2.30;;;10.80;99.90;;;;;;5105742;28;20059;-68
2023/03/24 04:28:20;;;;;;;7.82;2.40;;;10.60;99.90;;;;;;5094131;28;20130;-68
2023/03/24 04:30:56;;;;;;;5.47;1.83;;;10.50;99.90;;;;;;5081763;28;20075;-68
2023/03/24 04:33:47;;;;;;;5.45;2.58;;;10.50;99.90;;;;;;5094527;28;20119;-68
2023/03/24 04:36:28;;;;;;;4.25;2.13;;;10.40;99.90;;;;;;5094274;28;20036;-68
2023/03/24 04:39:01;;;;;;;5.63;2.60;;;10.30;99.90;;;;;;5100852;28;20044;-68
2023/03/24 04:41:36;;;;;;;7.05;2.70;;;10.30;99.90;;;;;;5097605;28;20046;-68
2023/03/24 04:44:05;;;;;;;7.78;2.55;;;10.20;99.90;;;;;;5078088;28;20054;-68
2023/03/24 04:46:34;;;;;;;6.82;2.30;;;10.20;99.90;;;;;;5094734;28;20061;-68
2023/03/24 04:49:01;;;;;;;5.70;2.97;;;10.10;99.90;;;;;;5078812;28;20065;-68
2023/03/24 04:51:29;;;;;;;5.38;2.35;;;10.10;99.90;;;;;;5094263;28;20048;-67
2023/03/24 04:53:57;;;;;;;7.90;2.08;;;10.00;99.90;;;;;;5091437;28;20039;-67
2023/03/24 04:56:51;;;;;;;4.80;2.10;;;10.00;99.90;;;;;;5101480;28;20176;-68
2023/03/24 04:59:17;;;;;;;4.00;1.88;;;9.90;99.90;;;;;;5095773;28;20116;-67
2023/03/24 05:01:52;;;;;;;7.22;2.13;;;9.80;99.90;;;;;;5081966;28;20663;-67
2023/03/24 05:04:29;;;;;;;7.63;2.20;;;9.80;99.90;;;;;;5097208;28;20101;-67
2023/03/24 05:06:57;;;;;;;8.27;2.22;;;9.70;99.90;;;;;;5092177;28;20040;-67
2023/03/24 05:09:30;;;;;;;8.32;2.20;;;9.70;99.90;;;;;;5076809;28;20471;-67
2023/03/24 05:11:56;;;;;;;5.85;2.30;;;9.70;99.90;;;;;;5093965;28;20039;-67
2023/03/24 05:14:22;;;;;;;10.32;2.45;;;9.60;99.90;;;;;;5097200;28;20443;-67
2023/03/24 05:16:51;;;;;;;10.85;2.90;;;9.60;99.90;;;;;;5078637;28;20043;-67
2023/03/24 05:19:23;;;;;;;5.55;2.38;;;9.60;99.90;;;;;;5109863;27;20075;-68
2023/03/24 05:21:48;;;;;;;5.78;2.20;;;9.60;99.90;;;;;;5094471;28;20094;-67
2023/03/24 05:24:17;;;;;;;5.45;2.38;;;9.60;99.90;;;;;;5096410;28;20570;-68
2023/03/24 05:26:43;;;;;;;9.15;2.63;;;9.50;99.90;;;;;;5100257;28;20093;-68
2023/03/24 05:29:09;;;;;;;6.95;2.28;;;9.60;99.90;;;;;;5104848;28;20115;-67
2023/03/24 05:31:37;;;;;;;6.10;2.47;;;9.50;99.90;;;;;;5098893;28;20503;-67
2023/03/24 05:34:03;;;;;;;7.50;2.70;;;9.50;99.90;;;;;;5101596;28;20036;-67
2023/03/24 05:36:29;;;;;;;10.25;3.58;;;9.50;99.90;;;;;;5101800;28;20460;-67
2023/03/24 05:38:56;;;;;;;7.18;2.90;;;9.50;99.90;;;;;;5090615;28;20468;-67
2023/03/24 05:41:22;;;;;;;17.67;2.95;;;9.50;99.90;;;;;;5096002;28;20027;-67
2023/03/24 05:43:47;;;;;;;10.40;3.05;;;9.50;99.90;;;;;;5092901;28;20066;-67
2023/03/24 05:46:13;;;;;;;8.13;3.30;;;9.50;99.90;;;;;;5076265;28;20119;-68
2023/03/24 05:48:39;;;;;;;7.70;3.15;;;9.50;99.90;;;;;;5092981;28;20492;-67
2023/03/24 05:51:05;;;;;;;8.93;2.85;;;9.50;99.90;;;;;;5075109;28;20516;-68
2023/03/24 05:53:31;;;;;;;7.18;2.83;;;9.50;99.90;;;;;;5102875;28;20040;-67
2023/03/24 05:55:57;;;;;;;8.23;2.58;;;9.40;99.90;;;;;;5087656;28;20039;-68
2023/03/24 05:58:23;;;;;;;6.97;2.97;;;9.40;99.90;;;;;;5122025;28;20059;-67
2023/03/24 06:00:53;;;;;;;10.77;2.60;;;9.40;99.90;;;;;;5100876;28;20112;-67
2023/03/24 06:03:19;;;;;;;8.30;2.53;;;9.40;99.90;;;;;;5097705;28;20035;-67
2023/03/24 06:05:46;;;;;;;9.45;2.50;;;9.30;99.90;;;;;;5095700;28;20523;-67
2023/03/24 06:08:12;;;;;;;10.20;2.88;;;9.30;99.90;;;;;;5095274;28;20047;-67
2023/03/24 06:10:39;;;;;;;9.70;2.50;;;9.20;99.90;;;;;;5103176;28;20028;-67
2023/03/24 06:13:07;;;;;;;9.63;2.67;;;9.20;99.90;;;;;;5118829;27;20044;-66
2023/03/24 06:15:38;;;;;;;10.52;2.90;;;9.20;99.90;;;;;;5097541;28;20051;-68
2023/03/24 06:18:04;;;;;;;9.25;2.63;;;9.20;99.90;;;;;;5095757;28;20254;-68
2023/03/24 06:20:29;;;;;;;7.40;2.20;;;9.20;99.90;;;;;;5059584;28;20048;-68
2023/03/24 06:22:58;;;;;;;14.32;2.92;;;9.20;99.90;;;;;;5095460;28;20047;-67
2023/03/24 06:25:26;;;;;;;16.05;2.90;;;9.20;99.90;;;;;;5100130;28;20071;-67
2023/03/24 06:27:52;;;;;;;8.63;2.75;;;9.20;99.90;;;;;;5077864;28;20075;-67
2023/03/24 06:30:18;;;;;;;7.43;2.53;;;9.20;99.90;;;;;;5102034;28;20558;-67
2023/03/24 06:32:45;;;;;;;6.82;2.20;;;9.20;99.90;;;;;;5104740;28;20035;-67
2023/03/24 06:35:12;;;;;;;8.40;2.38;;;9.30;99.90;;;;;;5096105;28;20144;-67
2023/03/24 06:37:39;;;;;;;8.00;2.85;;;9.30;99.90;;;;;;5100260;28;20114;-67
2023/03/24 06:40:06;;;;;;;10.48;2.88;;;9.30;99.90;;;;;;5076046;28;20524;-67
2023/03/24 06:42:31;;;;;;;8.73;2.95;;;9.30;99.90;;;;;;5095547;28;20044;-67
2023/03/24 06:44:57;;;;;;;10.07;2.63;;;9.40;99.90;;;;;;5104133;28;20541;-67
2023/03/24 06:47:23;;;;;;;9.65;3.00;;;9.40;99.90;;;;;;5092077;28;20404;-67
2023/03/24 06:49:49;;;;;;;7.43;2.55;;;9.50;99.90;;;;;;5094468;28;20084;-67
2023/03/24 06:52:15;;;;;;;10.38;2.80;;;9.50;99.90;;;;;;5101301;28;20032;-67
2023/03/24 06:54:40;;;;;;;8.18;2.92;;;9.50;99.90;;;;;;5093350;28;20031;-67
2023/03/24 06:57:06;;;;;;;5.68;2.50;;;9.50;99.90;;;;;;5075995;28;20477;-67
2023/03/24 06:59:32;;;;;;;8.80;2.55;;;9.50;99.90;;;;;;5096629;28;20086;-67
2023/03/24 07:01:58;;;;;;;5.75;2.35;;;9.50;99.90;;;;;;5098146;28;20060;-67
2023/03/24 07:04:24;;;;;;;9.15;2.40;;;9.60;99.90;;;;;;5103536;28;20039;-67
2023/03/24 07:06:50;;;;;;;5.85;2.10;;;9.60;99.90;;;;;;5102098;28;20047;-67
2023/03/24 07:09:22;;;;;;;8.85;2.80;;;9.60;99.90;;;;;;5099198;28;20131;-67
2023/03/24 07:11:47;;;;;;;6.20;2.05;;;9.70;99.90;;;;;;5101586;28;20039;-67
2023/03/24 07:14:13;;;;;;;12.43;2.78;;;9.80;99.90;;;;;;5095167;28;20531;-67
2023/03/24 07:16:39;;;;;;;12.90;2.72;;;9.80;99.90;;;;;;5088252;28;20044;-67
2023/03/24 07:19:07;;;;;;;9.55;2.88;;;9.80;99.90;;;;;;5094738;28;20118;-67
2023/03/24 07:21:33;;;;;;;15.80;2.90;;;9.80;99.90;;;;;;5081112;28;20047;-67
2023/03/24 07:23:58;;;;;;;12.93;2.40;;;9.80;99.90;;;;;;5101842;28;20048;-67
2023/03/24 07:26:24;;;;;;;6.70;2.20;;;9.80;99.90;;;;;;5095159;28;20035;-67
2023/03/24 07:28:53;;;;;;;8.07;3.10;;;9.80;99.90;;;;;;5081422;28;20063;-67
2023/03/24 07:31:19;;;;;;;14.98;2.83;;;9.80;99.90;;;;;;5079866;28;20115;-67
2023/03/24 07:33:44;;;;;;;10.20;2.90;;;9.80;99.90;;;;;;5067645;28;20557;-67
2023/03/24 07:36:10;;;;;;;11.25;3.75;;;9.80;99.90;;;;;;5087695;28;20040;-67
2023/03/24 07:38:36;;;;;;;7.80;2.58;;;9.80;99.90;;;;;;5066518;28;20424;-67
2023/03/24 07:41:02;;;;;;;10.48;2.33;;;9.90;99.90;;;;;;5082747;28;20035;-67
2023/03/24 07:43:31;;;;;;;13.88;3.20;;;10.00;99.90;;;;;;5083565;28;20393;-67
2023/03/24 07:45:56;;;;;;;13.15;3.63;;;10.00;99.90;;;;;;5084634;28;20028;-67
2023/03/24 07:48:28;;;;;;;9.50;2.80;;;10.00;99.90;;;;;;5066023;28;20467;-67
2023/03/24 07:50:54;;;;;;;13.38;3.25;;;10.10;99.90;;;;;;5085068;28;20501;-67
2023/03/24 07:53:20;;;;;;;9.90;3.13;;;10.10;99.90;;;;;;5084163;28;20535;-67
2023/03/24 07:55:46;;;;;;;12.38;3.47;;;10.10;99.90;;;;;;5083840;28;20131;-67
2023/03/24 07:58:12;;;;;;;10.15;3.28;;;10.10;99.90;;;;;;5067310;28;20047;-66
2023/03/24 08:00:38;;;;;;;13.05;2.85;;;10.10;99.90;;;;;;5084727;28;20040;-67
2023/03/24 08:03:08;;;;;;;11.07;2.72;;;10.10;99.90;;;;;;5080227;28;20044;-67
2023/03/24 08:05:34;;;;;;;14.20;2.92;;;10.10;99.90;;;;;;5065686;28;21293;-67
2023/03/24 08:07:59;;;;;;;18.30;3.30;;;10.00;99.90;;;;;;5079383;28;20043;-67
2023/03/24 08:10:28;;;;;;;9.93;2.95;;;10.10;99.90;;;;;;5069047;28;20048;-66
2023/03/24 08:12:55;;;;;;;16.83;3.17;;;10.00;99.90;;;;;;5080187;28;20139;-67
2023/03/24 08:15:22;;;;;;;14.68;3.42;;;10.00;99.90;;;;;;5077149;28;20157;-67
2023/03/24 08:17:48;;;;;;;15.70;4.00;;;10.00;99.90;;;;;;5085014;28;20048;-66
2023/03/24 08:20:15;;;;;;;13.95;3.67;;;10.00;99.90;;;;;;5083852;28;20059;-67
2023/03/24 08:22:43;;;;;;;17.05;3.28;;;10.00;99.90;;;;;;5083847;28;21010;-67
2023/03/24 08:25:13;;;;;;;15.20;3.67;;;10.10;99.90;;;;;;5079322;28;20044;-67
2023/03/24 08:27:42;;;;;;;16.77;3.42;;;10.20;99.90;;;;;;5065189;28;20052;-67
2023/03/24 08:30:12;;;;;;;14.77;3.58;;;10.30;99.90;;;;;;5080902;28;20141;-67
2023/03/24 08:32:52;;;;;;;14.77;3.92;;;10.40;99.90;;;;;;5084360;28;20040;-67
2023/03/24 08:35:22;;;;;;;16.27;4.07;;;10.50;99.90;;;;;;5082828;28;20039;-66
2023/03/24 08:37:50;;;;;;;15.25;3.05;;;10.50;99.90;;;;;;5081393;28;20400;-67
2023/03/24 08:40:22;;;;;;;15.65;4.53;;;10.50;99.90;;;;;;5082150;28;20036;-66
2023/03/24 08:42:53;;;;;;;12.30;3.80;;;10.50;99.90;;;;;;5060259;28;20052;-67
2023/03/24 08:45:21;;;;;;;12.13;3.53;;;10.60;99.90;;;;;;5063917;28;20062;-66
2023/03/24 08:47:49;;;;;;;12.18;3.58;;;10.70;99.90;;;;;;5084474;28;20036;-66
2023/03/24 08:50:15;;;;;;;15.90;3.53;;;10.70;99.90;;;;;;5089521;28;20369;-66
2023/03/24 08:52:40;;;;;;;16.65;3.17;;;10.60;99.90;;;;;;5066447;28;20134;-67
2023/03/24 08:55:10;;;;;;;14.50;3.88;;;10.60;99.90;;;;;;5082033;28;20132;-67
2023/03/24 08:57:36;;;;;;;11.27;3.00;;;10.90;99.90;;;;;;5084833;28;20066;-67
2023/03/24 09:00:08;;;;;;;13.48;3.30;;;11.20;99.90;;;;;;5065847;28;20047;-66
2023/03/24 09:02:34;;;;;;;13.68;3.20;;;11.50;99.90;;;;;;5081767;28;20081;-67
2023/03/24 09:05:00;;;;;;;11.98;3.15;;;12.40;99.90;;;;;;5075224;28;20051;-67
2023/03/24 09:07:26;;;;;;;11.55;2.50;;;13.50;99.90;;;;;;5082400;28;20052;-67
2023/03/24 09:09:52;;;;;;;17.25;3.17;;;14.10;99.90;;;;;;5062957;28;20044;-67
2023/03/24 09:12:17;;;;;;;13.63;3.60;;;14.20;99.90;;;;;;5081687;28;20039;-67
2023/03/24 09:14:47;;;;;;;9.50;2.85;;;14.30;99.90;;;;;;5079842;28;20035;-67
2023/03/24 09:17:13;;;;;;;20.30;3.78;;;14.50;99.90;;;;;;5077258;28;20697;-67
2023/03/24 09:19:39;;;;;;;14.48;2.90;;;14.70;99.90;;;;;;5079850;28;20047;-66
2023/03/24 09:22:05;;;;;;;10.75;3.15;;;14.60;99.90;;;;;;5074240;28;20531;-67
2023/03/24 09:24:31;;;;;;;17.23;3.97;;;14.60;99.90;;;;;;5075453;28;20075;-67
2023/03/24 09:26:57;;;;;;;17.38;2.80;;;14.20;99.90;;;;;;5079964;28;20462;-67
2023/03/24 09:29:23;;;;;;;14.43;3.78;;;13.50;99.90;;;;;;5079358;28;20059;-66
2023/03/24 09:31:49;;;;;;;9.68;2.75;;;12.80;99.90;;;;;;5074707;28;20390;-66
2023/03/24 09:34:15;;;;;;;14.93;3.03;;;12.30;99.90;;;;;;5078900;28;20036;-67
2023/03/24 09:36:40;;;;;;;11.15;3.03;;;12.00;99.90;;;;;;5063193;28;20051;-66
2023/03/24 09:39:07;;;;;;;18.85;3.63;;;12.20;99.90;;;;;;5084657;28;20043;-67
2023/03/24 09:41:33;;;;;;;12.82;3.65;;;12.20;99.90;;;;;;5081589;28;20046;-67
2023/03/24 09:44:02;;;;;;;13.23;3.40;;;12.40;99.90;;;;;;5078312;28;20051;-66
2023/03/24 09:46:34;;;;;;;14.90;4.00;;;13.30;99.90;;;;;;5081246;28;20032;-66
2023/03/24 09:49:01;;;;;;;10.05;2.80;;;13.90;99.90;;;;;;5084838;28;20060;-66
2023/03/24 09:51:38;;;;;;;12.68;3.40;;;13.90;99.90;;;;;;5084307;28;20101;-67
2023/03/24 09:54:07;;;;;;;13.85;2.80;;;14.20;99.90;;;;;;5083140;28;20055;-66
2023/03/24 09:56:36;;;;;;;14.18;2.85;;;14.60;99.90;;;;;;5070489;28;20130;-66
2023/03/24 09:59:08;;;;;;;12.32;3.10;;;14.90;99.90;;;;;;5086502;28;20050;-66
2023/03/24 10:01:35;;;;;;;;;;;14.70;99.90;;;;;;5083157;28;20035;-66
2023/03/24 10:04:01;;;;;;;8.60;2.67;;;14.60;99.90;;;;;;5088345;28;19934;-66
2023/03/24 10:06:40;;;;;;;15.55;3.50;;;14.70;99.90;;;;;;5086262;28;20036;-67
2023/03/24 10:09:18;;;;;;;11.90;2.78;;;14.50;99.90;;;;;;5086584;28;20763;-66
2023/03/24 10:12:05;;;;;;;13.27;2.60;;;14.80;99.90;;;;;;5088927;28;20031;-67
2023/03/24 10:15:02;;;;;;;9.40;2.60;;;15.00;99.80;;;;;;5078988;28;20122;-67
2023/03/24 10:17:46;;;;;;;10.35;2.85;;;15.40;99.30;;;;;;5077249;28;20043;-67
2023/03/24 10:20:41;;;;;;;14.25;2.15;;;16.00;99.30;;;;;;5075084;28;20134;-67
2023/03/24 10:23:29;;;;;;;8.13;2.30;;;16.10;98.50;;;;;;5078857;28;20056;-67
2023/03/24 10:26:10;;;;;;;12.95;3.00;;;16.50;98.50;;;;;;5077298;28;20040;-67
2023/03/24 10:28:47;;;;;;;13.85;3.10;;;16.90;97.30;;;;;;5039143;28;20439;-67
2023/03/24 10:31:16;;;;;;;14.30;2.63;;;17.30;99.40;;;;;;5020692;28;20792;-67
2023/03/24 10:33:43;;;;;;;13.43;2.72;;;17.60;96.50;;;;;;5039889;28;20130;-67
2023/03/24 10:36:17;;;;;;;14.38;2.63;;;17.20;96.30;;;;;;5034714;28;20119;-66
2023/03/24 10:38:44;;;;;;;12.48;2.88;;;16.40;96.50;;;;;;5011398;28;20052;-66
2023/03/24 10:41:17;;;;;;;10.52;2.80;;;15.40;97.30;;;;;;5019805;28;20422;-66
2023/03/24 10:43:44;;;;;;;10.07;2.63;;;15.20;98.10;;;;;;5019681;28;20132;-66
2023/03/24 10:46:21;;;;;;;8.55;3.25;;;15.10;98.30;;;;;;5036594;28;20076;-67
2023/03/24 10:48:53;;;;;;;9.90;3.25;;;15.30;98.30;;;;;;5009635;28;20049;-67
2023/03/24 10:51:31;;;;;;;20.60;3.05;;;15.10;98.90;;;;;;5015745;28;21770;-66
2023/03/24 10:54:26;;;;;;;9.68;2.80;;;15.20;99.20;;;;;;5028000;28;20081;-67
2023/03/24 10:57:02;;;;;;;10.82;2.65;;;14.50;98.30;;;;;;5025385;28;20056;-67
2023/03/24 10:59:34;;;;;;;7.68;2.25;;;14.20;98.40;;;;;;5031617;28;20384;-67
2023/03/24 11:02:09;;;;;;;20.08;3.30;;;13.70;98.70;;;;;;5012860;28;20163;-67
2023/03/24 11:04:40;;;;;;;12.68;2.58;;;13.40;99.70;;;;;;5032925;28;20049;-67
2023/03/24 11:07:11;;;;;;;14.48;2.42;;;13.20;99.90;;;;;;5026437;28;20036;-67
2023/03/24 11:09:42;;;;;;;10.23;2.70;;;12.90;99.50;;;;;;5028979;28;20040;-67
2023/03/24 11:12:23;;;;;;;9.48;2.45;;;13.00;98.60;;;;;;5030473;28;20029;-66
2023/03/24 11:14:49;;;;;;;10.55;2.53;;;13.10;99.10;;;;;;5023143;28;20281;-67
2023/03/24 11:17:19;;;;;;;9.90;2.60;;;13.90;99.40;;;;;;5020573;28;20041;-67
2023/03/24 11:19:56;;;;;;;8.07;2.95;;;13.90;98.10;;;;;;5024636;28;20043;-66
2023/03/24 11:22:23;;;;;;;8.18;2.65;;;14.10;98.00;;;;;;5022665;28;20633;-67
2023/03/24 11:24:55;;;;;;;10.43;2.42;;;13.80;97.90;;;;;;5022006;28;20120;-67
2023/03/24 11:27:21;;;;;;;6.55;2.22;;;13.90;98.60;;;;;;5042049;28;20076;-66
2023/03/24 11:29:54;;;;;;;12.55;2.55;;;13.70;98.30;;;;;;5065060;28;20075;-67
2023/03/24 11:32:26;;;;;;;8.93;2.28;;;13.50;98.70;;;;;;5068542;28;20036;-66
2023/03/24 11:35:03;;;;;;;9.13;2.35;;;13.10;98.00;;;;;;5055763;28;20051;-67
2023/03/24 11:37:32;;;;;;;9.88;2.78;;;13.10;98.80;;;;;;5058303;28;20077;-66
2023/03/24 11:40:17;;;;;;;15.32;2.63;;;13.20;98.40;;;;;;5067674;28;20059;-67
2023/03/24 11:42:49;;;;;;;7.60;2.25;;;13.60;99.10;;;;;;5064128;28;20245;-67
2023/03/24 11:45:27;;;;;;;5.03;2.20;;;13.70;98.70;;;;;;5063128;28;20098;-67
2023/03/24 11:47:56;;;;;;;7.40;1.95;;;14.10;98.80;;;;;;5066803;28;20044;-66
2023/03/24 11:50:28;;;;;;;8.73;2.50;;;14.30;98.00;;;;;;5065534;28;20445;-66
2023/03/24 11:53:14;;;;;;;4.70;1.93;;;14.40;98.00;;;;;;5068593;28;20529;-66
2023/03/24 11:56:04;;;;;;;9.00;2.05;;;14.60;97.10;;;;;;5067169;28;20040;-67
2023/03/24 11:58:40;;;;;;;6.97;2.13;;;14.50;96.70;;;;;;5066839;28;20116;-67
2023/03/24 12:01:14;;;;;;;10.25;2.15;;;14.50;97.10;;;;;;5070030;28;20370;-67
2023/03/24 12:04:07;;;;;;;6.72;2.25;;;14.50;97.00;;;;;;5054158;28;20036;-66
2023/03/24 12:06:51;;;;;;;;;;;14.50;97.70;;;;;;5067860;28;20040;-67
2023/03/24 12:09:31;;;;;;;10.18;2.42;;;14.90;98.30;;;;;;5070938;28;19931;-67
2023/03/24 12:12:22;;;;;;;8.20;2.50;;;15.00;98.00;;;;;;5071977;28;20107;-67
2023/03/24 12:15:11;;;;;;;10.65;2.22;;;15.30;97.90;;;;;;5068715;28;20063;-67
2023/03/24 12:17:45;;;;;;;7.82;2.55;;;15.50;97.70;;;;;;5069317;28;20040;-67
2023/03/24 12:20:42;;;;;;;10.50;2.97;;;15.70;98.30;;;;;;5068515;28;20414;-67
2023/03/24 12:23:11;;;;;;;8.45;3.13;;;16.00;97.80;;;;;;5060681;28;20090;-67
2023/03/24 12:25:45;;;;;;;8.57;3.20;;;16.10;97.90;;;;;;5065991;28;20154;-66
2023/03/24 12:28:38;;;;;;;7.70;2.40;;;15.80;96.60;;;;;;5055818;28;20049;-67
2023/03/24 12:31:29;;;;;;;7.13;1.73;;;15.40;95.30;;;;;;5065424;28;20075;-66
2023/03/24 12:34:21;;;;;;;7.63;2.33;;;15.20;96.90;;;;;;5066223;28;20456;-66
2023/03/24 12:37:18;;;;;;;8.70;2.15;;;15.30;96.80;;;;;;5051282;28;20389;-67
2023/03/24 12:40:09;;;;;;;5.35;2.42;;;15.40;94.50;;;;;;5070762;28;20097;-66
2023/03/24 12:42:45;;;;;;;8.68;2.15;;;15.30;93.60;;;;;;5070409;28;20075;-67
2023/03/24 12:45:17;;;;;;;9.00;1.95;;;15.40;93.70;;;;;;5051356;28;20044;-66
2023/03/24 12:47:51;;;;;;;5.68;2.00;;;15.40;93.80;;;;;;5070947;28;20071;-67
2023/03/24 12:50:22;;;;;;;8.98;2.10;;;15.10;94.00;;;;;;5066965;28;20036;-67
2023/03/24 12:53:15;;;;;;;4.55;1.50;;;15.10;94.30;;;;;;5070474;28;20174;-66
2023/03/24 12:55:53;;;;;;;9.35;1.80;;;15.30;94.40;;;;;;5069201;28;20064;-66
2023/03/24 12:58:37;;;;;;;10.23;2.40;;;15.40;93.80;;;;;;5070316;28;20559;-67
2023/03/24 13:01:18;;;;;;;4.82;1.85;;;15.60;94.40;;;;;;5070040;28;20054;-67
2023/03/24 13:04:04;;;;;;;5.85;1.88;;;15.50;93.40;;;;;;5059764;28;20132;-67
2023/03/24 13:06:36;;;;;;;9.00;2.28;;;15.60;94.50;;;;;;5073078;28;20037;-66
2023/03/24 13:09:06;;;;;;;7.60;2.22;;;15.70;93.60;;;;;;5063003;28;20039;-66
2023/03/24 13:12:01;;;;;;;9.93;2.20;;;15.60;94.30;;;;;;5059945;28;20697;-67
2023/03/24 13:15:04;;;;;;;10.93;2.40;;;15.60;93.80;;;;;;5064973;28;20044;-67